createdAt,value
2018-12-16T00:02:57.170Z,0.90
2018-12-16T00:06:21.914Z,0.90
2018-12-16T00:09:46.635Z,0.90
2018-12-16T00:13:11.300Z,0.90
2018-12-16T00:16:35.986Z,0.90
2018-12-16T00:20:00.697Z,0.90
2018-12-16T00:23:25.417Z,0.90
2018-12-16T00:27:09.009Z,0.90
2018-12-16T00:30:33.865Z,0.90
2018-12-16T00:33:58.569Z,0.90
2018-12-16T00:37:23.340Z,0.90
2018-12-16T00:40:48.072Z,0.90
2018-12-16T00:44:12.833Z,0.90
2018-12-16T00:47:37.667Z,0.90
2018-12-16T00:51:02.431Z,1.00
2018-12-16T00:54:27.208Z,1.00
2018-12-16T00:57:51.915Z,1.00
2018-12-16T01:01:16.679Z,1.00
2018-12-16T01:04:41.607Z,1.00
2018-12-16T01:08:06.270Z,1.00
2018-12-16T01:11:30.969Z,1.00
2018-12-16T01:14:55.699Z,1.00
2018-12-16T01:18:20.443Z,1.00
2018-12-16T01:21:45.185Z,1.00
2018-12-16T01:25:09.930Z,1.00
2018-12-16T01:28:34.722Z,1.00
2018-12-16T01:31:59.381Z,1.00
2018-12-16T01:35:24.015Z,1.00
2018-12-16T01:38:48.692Z,1.00
2018-12-16T01:42:13.374Z,1.00
2018-12-16T01:45:38.070Z,1.00
2018-12-16T01:49:02.805Z,1.00
2018-12-16T01:52:27.490Z,1.00
2018-12-16T01:55:52.200Z,1.10
2018-12-16T01:59:16.884Z,0.90
2018-12-16T02:02:41.606Z,0.80
2018-12-16T02:06:06.477Z,0.70
2018-12-16T02:09:31.295Z,0.60
2018-12-16T02:12:56.108Z,0.60
2018-12-16T02:16:20.826Z,0.50
2018-12-16T02:19:45.625Z,0.40
2018-12-16T02:23:10.340Z,0.30
2018-12-16T02:26:35.106Z,0.30
2018-12-16T02:29:59.803Z,0.30
2018-12-16T02:33:24.530Z,0.30
2018-12-16T02:36:49.219Z,0.40
2018-12-16T02:40:14.175Z,0.40
2018-12-16T02:43:38.855Z,0.40
2018-12-16T02:47:03.658Z,0.40
2018-12-16T02:50:28.434Z,0.40
2018-12-16T02:53:59.795Z,0.40
2018-12-16T02:57:24.547Z,0.40
2018-12-16T03:00:49.340Z,0.40
2018-12-16T03:04:14.024Z,0.30
2018-12-16T03:07:38.754Z,0.30
2018-12-16T03:11:03.575Z,0.30
2018-12-16T03:14:28.362Z,0.30
2018-12-16T03:17:53.630Z,0.20
2018-12-16T03:21:18.334Z,0.10
2018-12-16T03:24:43.041Z,0.10
2018-12-16T03:28:07.707Z,0.10
2018-12-16T03:31:32.394Z,0.00
2018-12-16T03:34:57.166Z,0.00
2018-12-16T03:38:21.822Z,0.00
2018-12-16T03:41:46.549Z,0.00
2018-12-16T03:45:11.406Z,0.00
2018-12-16T03:48:36.131Z,0.00
2018-12-16T03:52:00.907Z,0.00
2018-12-16T03:55:25.667Z,0.10
2018-12-16T03:59:07.148Z,0.10
2018-12-16T04:02:31.821Z,0.10
2018-12-16T04:05:56.499Z,0.10
2018-12-16T04:09:21.242Z,0.00
2018-12-16T04:12:45.910Z,0.10
2018-12-16T04:16:10.650Z,0.10
2018-12-16T04:19:35.403Z,0.10
2018-12-16T04:23:00.039Z,0.10
2018-12-16T04:26:24.744Z,0.10
2018-12-16T04:29:49.485Z,0.10
2018-12-16T04:33:14.155Z,0.10
2018-12-16T04:36:38.864Z,0.00
2018-12-16T04:40:03.700Z,0.00
2018-12-16T04:43:28.474Z,-0.10
2018-12-16T04:46:53.183Z,0.00
2018-12-16T04:50:17.870Z,-0.10
2018-12-16T04:53:42.607Z,-0.10
2018-12-16T04:57:07.301Z,-0.10
2018-12-16T05:00:31.947Z,-0.10
2018-12-16T05:03:56.663Z,-0.10
2018-12-16T05:07:21.318Z,-0.10
2018-12-16T05:10:45.984Z,-0.10
2018-12-16T05:14:10.717Z,-0.10
2018-12-16T05:17:35.341Z,0.00
2018-12-16T05:21:00.012Z,0.00
2018-12-16T05:24:24.748Z,0.00
2018-12-16T05:27:49.555Z,0.00
2018-12-16T05:31:14.245Z,0.00
2018-12-16T05:34:38.931Z,0.00
2018-12-16T05:38:03.634Z,0.00
2018-12-16T05:41:28.320Z,0.00
2018-12-16T05:44:53.105Z,0.00
2018-12-16T05:48:17.735Z,0.00
2018-12-16T05:51:42.414Z,0.00
2018-12-16T05:55:10.515Z,0.10
2018-12-16T05:58:35.188Z,0.10
2018-12-16T06:01:59.874Z,0.10
2018-12-16T06:05:24.553Z,0.10
2018-12-16T06:08:49.205Z,0.10
2018-12-16T06:12:13.838Z,0.10
2018-12-16T06:15:38.564Z,0.10
2018-12-16T06:19:03.218Z,0.10
2018-12-16T06:22:27.913Z,0.10
2018-12-16T06:25:52.527Z,0.10
2018-12-16T06:29:17.261Z,0.10
2018-12-16T06:32:41.935Z,0.10
2018-12-16T06:36:06.646Z,0.20
2018-12-16T06:39:31.264Z,0.20
2018-12-16T06:42:56.047Z,0.20
2018-12-16T06:46:21.076Z,0.20
2018-12-16T06:49:45.687Z,0.20
2018-12-16T06:53:10.379Z,0.20
2018-12-16T06:56:35.204Z,0.20
2018-12-16T07:00:00.185Z,0.20
2018-12-16T07:03:24.883Z,0.20
2018-12-16T07:06:49.574Z,0.30
2018-12-16T07:10:14.384Z,0.30
2018-12-16T07:13:39.118Z,0.30
2018-12-16T07:17:03.834Z,0.30
2018-12-16T07:20:28.525Z,0.40
2018-12-16T07:23:53.284Z,0.40
2018-12-16T07:27:18.158Z,0.40
2018-12-16T07:30:42.919Z,0.40
2018-12-16T07:34:07.574Z,0.40
2018-12-16T07:37:32.416Z,0.40
2018-12-16T07:40:57.276Z,0.40
2018-12-16T07:44:21.973Z,0.40
2018-12-16T07:47:46.921Z,0.40
2018-12-16T07:51:11.602Z,0.40
2018-12-16T07:54:36.346Z,0.30
2018-12-16T07:58:01.079Z,0.30
2018-12-16T08:01:25.833Z,0.30
2018-12-16T08:04:50.567Z,0.30
2018-12-16T08:08:15.412Z,0.40
2018-12-16T08:11:40.055Z,0.40
2018-12-16T08:15:04.969Z,0.50
2018-12-16T08:18:29.664Z,0.50
2018-12-16T08:21:54.404Z,0.50
2018-12-16T08:25:19.049Z,0.50
2018-12-16T08:28:43.696Z,0.50
2018-12-16T08:32:08.415Z,0.50
2018-12-16T08:35:33.190Z,0.50
2018-12-16T08:38:57.947Z,0.50
2018-12-16T08:42:22.631Z,0.50
2018-12-16T08:45:47.301Z,0.40
2018-12-16T08:49:11.939Z,0.50
2018-12-16T08:56:11.554Z,0.50
2018-12-16T08:59:36.298Z,0.50
2018-12-16T09:03:01.058Z,0.50
2018-12-16T09:06:25.881Z,0.50
2018-12-16T09:09:50.534Z,0.60
2018-12-16T09:13:15.204Z,0.60
2018-12-16T09:16:39.870Z,0.70
2018-12-16T09:20:04.962Z,0.70
2018-12-16T09:23:29.618Z,0.70
2018-12-16T09:26:54.275Z,0.80
2018-12-16T09:30:18.948Z,0.80
2018-12-16T09:33:43.714Z,0.90
2018-12-16T09:37:08.386Z,0.90
2018-12-16T09:40:33.143Z,0.90
2018-12-16T09:43:57.792Z,0.90
2018-12-16T09:47:22.956Z,0.90
2018-12-16T09:50:47.675Z,1.00
2018-12-16T09:54:12.476Z,1.00
2018-12-16T09:57:37.210Z,1.10
2018-12-16T10:01:01.946Z,1.10
2018-12-16T10:04:26.602Z,1.20
2018-12-16T10:07:51.260Z,1.20
2018-12-16T10:11:16.051Z,1.20
2018-12-16T10:14:40.885Z,1.20
2018-12-16T10:18:05.813Z,1.30
2018-12-16T10:21:30.620Z,1.20
2018-12-16T10:24:55.246Z,1.20
2018-12-16T10:28:19.885Z,1.20
2018-12-16T10:31:45.915Z,1.10
2018-12-16T10:35:10.721Z,1.20
2018-12-16T10:38:35.459Z,1.20
2018-12-16T10:42:00.105Z,1.20
2018-12-16T10:45:24.795Z,1.10
2018-12-16T10:48:49.473Z,1.10
2018-12-16T10:52:14.139Z,1.10
2018-12-16T10:55:39.005Z,1.10
2018-12-16T10:59:03.706Z,1.20
2018-12-16T11:02:28.396Z,1.30
2018-12-16T11:05:53.056Z,1.40
2018-12-16T11:09:17.810Z,1.40
2018-12-16T11:12:42.883Z,1.40
2018-12-16T11:16:07.556Z,1.50
2018-12-16T11:19:32.281Z,1.60
2018-12-16T11:22:56.938Z,1.60
2018-12-16T11:26:21.600Z,1.60
2018-12-16T11:29:47.145Z,1.50
2018-12-16T11:33:11.900Z,1.50
2018-12-16T11:36:36.594Z,1.40
2018-12-16T11:40:01.280Z,1.40
2018-12-16T11:43:26.035Z,1.40
2018-12-16T11:46:50.703Z,1.40
2018-12-16T11:50:15.348Z,1.40
2018-12-16T11:53:40.026Z,1.50
2018-12-16T11:57:04.906Z,1.50
2018-12-16T12:00:29.540Z,1.50
2018-12-16T12:03:54.201Z,1.50
2018-12-16T12:07:19.078Z,1.50
2018-12-16T12:10:43.787Z,1.50
2018-12-16T12:14:08.460Z,1.50
2018-12-16T12:17:33.098Z,1.50
2018-12-16T12:20:57.749Z,1.50
2018-12-16T12:24:22.366Z,1.60
2018-12-16T12:27:47.113Z,1.60
2018-12-16T12:31:11.785Z,1.70
2018-12-16T12:34:36.443Z,1.70
2018-12-16T12:38:01.120Z,1.70
2018-12-16T12:41:25.769Z,1.70
2018-12-16T12:44:50.509Z,1.70
2018-12-16T12:48:15.191Z,1.70
2018-12-16T12:51:39.923Z,1.70
2018-12-16T12:55:05.034Z,1.70
2018-12-16T12:58:29.700Z,1.80
2018-12-16T13:01:54.359Z,1.80
2018-12-16T13:05:18.994Z,1.90
2018-12-16T13:08:43.634Z,1.80
2018-12-16T13:12:08.306Z,1.80
2018-12-16T13:15:33.010Z,1.80
2018-12-16T13:18:57.657Z,1.80
2018-12-16T13:22:22.330Z,1.90
2018-12-16T13:26:01.977Z,2.00
2018-12-16T13:29:26.792Z,2.00
2018-12-16T13:37:03.230Z,2.00
2018-12-16T13:40:28.023Z,2.00
2018-12-16T13:43:52.746Z,2.10
2018-12-16T13:47:17.483Z,2.10
2018-12-16T13:50:42.312Z,2.10
2018-12-16T13:54:07.092Z,2.10
2018-12-16T13:57:38.968Z,2.20
2018-12-16T14:01:03.734Z,2.30
2018-12-16T14:04:28.448Z,2.30
2018-12-16T14:07:53.133Z,2.40
2018-12-16T14:11:18.788Z,2.40
2018-12-16T14:14:45.114Z,2.30
2018-12-16T14:18:10.135Z,2.30
2018-12-16T14:21:34.801Z,2.20
2018-12-16T14:24:59.526Z,2.20
2018-12-16T14:28:24.220Z,2.20
2018-12-16T14:31:48.866Z,2.20
2018-12-16T14:35:14.286Z,2.20
2018-12-16T14:38:38.966Z,2.20
2018-12-16T14:42:03.742Z,2.20
2018-12-16T14:45:28.426Z,2.30
2018-12-16T14:48:53.089Z,2.20
2018-12-16T14:52:17.778Z,2.30
2018-12-16T14:55:42.445Z,2.20
2018-12-16T14:59:07.166Z,2.20
2018-12-16T15:02:31.844Z,2.20
2018-12-16T15:05:56.564Z,2.20
2018-12-16T15:09:21.858Z,2.10
2018-12-16T15:12:46.611Z,2.20
2018-12-16T15:16:11.256Z,2.10
2018-12-16T15:19:35.933Z,2.20
2018-12-16T15:23:00.620Z,2.10
2018-12-16T15:26:25.252Z,2.10
2018-12-16T15:29:49.933Z,2.10
2018-12-16T15:33:14.632Z,2.10
2018-12-16T15:36:39.334Z,2.10
2018-12-16T15:40:04.173Z,2.10
2018-12-16T15:43:28.830Z,2.10
2018-12-16T15:46:53.479Z,2.10
2018-12-16T15:50:18.251Z,2.10
2018-12-16T15:53:42.934Z,2.10
2018-12-16T15:57:07.642Z,2.10
2018-12-16T16:00:32.305Z,2.10
2018-12-16T16:03:57.016Z,2.10
2018-12-16T16:07:21.725Z,2.10
2018-12-16T16:10:46.415Z,2.10
2018-12-16T16:14:11.120Z,2.10
2018-12-16T16:17:35.794Z,2.20
2018-12-16T16:21:00.421Z,2.20
2018-12-16T16:24:25.236Z,2.10
2018-12-16T16:27:49.979Z,2.20
2018-12-16T16:31:14.698Z,2.30
2018-12-16T16:34:39.402Z,2.20
2018-12-16T16:38:04.635Z,2.30
2018-12-16T16:41:29.265Z,2.30
2018-12-16T16:44:53.999Z,2.30
2018-12-16T16:48:18.736Z,2.30
2018-12-16T16:51:43.470Z,2.40
2018-12-16T16:55:08.542Z,2.40
2018-12-16T16:58:33.225Z,2.40
2018-12-16T17:01:57.911Z,2.40
2018-12-16T17:05:22.583Z,2.40
2018-12-16T17:08:47.291Z,2.40
2018-12-16T17:12:12.009Z,2.40
2018-12-16T17:15:36.698Z,2.40
2018-12-16T17:19:02.850Z,2.40
2018-12-16T17:22:27.588Z,2.40
2018-12-16T17:25:52.262Z,2.40
2018-12-16T17:29:16.961Z,2.50
2018-12-16T17:32:41.659Z,2.50
2018-12-16T17:36:06.400Z,2.50
2018-12-16T17:39:31.087Z,2.50
2018-12-16T17:42:55.747Z,2.60
2018-12-16T17:46:20.405Z,2.60
2018-12-16T17:49:45.128Z,2.60
2018-12-16T17:53:09.872Z,2.60
2018-12-16T17:56:37.215Z,2.60
2018-12-16T18:00:01.249Z,2.60
2018-12-16T18:03:25.969Z,2.60
2018-12-16T18:06:50.663Z,2.60
2018-12-16T18:10:15.366Z,2.60
2018-12-16T18:13:40.107Z,2.60
2018-12-16T18:17:06.139Z,2.60
2018-12-16T18:20:30.844Z,2.60
2018-12-16T18:23:55.532Z,2.60
2018-12-16T18:27:20.273Z,2.60
2018-12-16T18:30:44.944Z,2.60
2018-12-16T18:34:09.895Z,2.70
2018-12-16T18:37:34.560Z,2.70
2018-12-16T18:40:59.243Z,2.70
2018-12-16T18:44:24.083Z,2.70
2018-12-16T18:47:48.764Z,2.70
2018-12-16T18:51:13.527Z,2.80
2018-12-16T18:54:38.315Z,2.80
2018-12-16T18:58:03.151Z,2.80
2018-12-16T19:01:27.881Z,2.80
2018-12-16T19:05:16.493Z,2.80
2018-12-16T19:09:00.148Z,2.80
2018-12-16T19:12:25.195Z,2.90
2018-12-16T19:20:05.544Z,2.90
2018-12-16T19:23:30.255Z,2.90
2018-12-16T19:31:00.174Z,3.00
2018-12-16T19:34:28.613Z,2.90
2018-12-16T19:37:53.445Z,2.90
2018-12-16T19:41:18.117Z,3.00
2018-12-16T19:44:42.919Z,3.00
2018-12-16T19:48:07.699Z,3.00
2018-12-16T19:51:32.422Z,3.00
2018-12-16T19:54:57.794Z,3.00
2018-12-16T19:58:22.892Z,3.00
2018-12-16T20:01:47.669Z,3.10
2018-12-16T20:05:17.585Z,3.00
2018-12-16T20:08:46.564Z,3.10
2018-12-16T20:12:11.331Z,3.00
2018-12-16T20:15:35.981Z,3.10
2018-12-16T20:19:00.644Z,3.10
2018-12-16T20:22:25.304Z,3.10
2018-12-16T20:25:49.987Z,3.10
2018-12-16T20:29:14.749Z,3.20
2018-12-16T20:32:39.562Z,3.10
2018-12-16T20:36:04.414Z,3.10
2018-12-16T20:39:29.076Z,3.10
2018-12-16T20:42:54.319Z,3.10
2018-12-16T20:46:19.153Z,3.10
2018-12-16T20:49:43.777Z,3.10
2018-12-16T20:53:08.787Z,3.10
2018-12-16T20:56:33.475Z,3.10
2018-12-16T20:59:58.157Z,3.10
2018-12-16T21:03:22.816Z,3.20
2018-12-16T21:06:47.480Z,3.10
2018-12-16T21:10:12.330Z,3.10
2018-12-16T21:13:42.077Z,3.20
2018-12-16T21:17:11.948Z,3.10
2018-12-16T21:20:36.653Z,3.10
2018-12-16T21:24:01.496Z,3.10
2018-12-16T21:27:26.355Z,3.20
2018-12-16T21:30:51.176Z,3.20
2018-12-16T21:34:15.842Z,3.20
2018-12-16T21:37:40.686Z,3.20
2018-12-16T21:41:05.411Z,3.20
2018-12-16T21:44:30.061Z,3.20
2018-12-16T21:47:54.760Z,3.20
2018-12-16T21:51:19.467Z,3.10
2018-12-16T21:54:47.005Z,3.10
2018-12-16T21:58:11.718Z,3.10
2018-12-16T22:01:36.685Z,3.20
2018-12-16T22:05:01.719Z,3.20
2018-12-16T22:08:26.531Z,3.20
2018-12-16T22:11:54.454Z,3.20
2018-12-16T22:15:20.280Z,3.20
2018-12-16T22:18:46.945Z,3.20
2018-12-16T22:22:12.419Z,3.20
2018-12-16T22:25:37.667Z,3.20
2018-12-16T22:29:02.720Z,3.20
2018-12-16T22:32:27.960Z,3.30
2018-12-16T22:35:52.767Z,3.30
2018-12-16T22:39:17.448Z,3.20
2018-12-16T22:42:42.167Z,3.20
2018-12-16T22:46:06.912Z,3.20
2018-12-16T22:49:31.774Z,3.20
2018-12-16T22:52:56.520Z,3.20
2018-12-16T22:56:21.200Z,3.20
2018-12-16T22:59:45.871Z,3.10
2018-12-16T23:03:10.527Z,3.10
2018-12-16T23:06:35.252Z,3.10
2018-12-16T23:09:59.954Z,3.10
2018-12-16T23:13:24.659Z,3.10
2018-12-16T23:16:49.345Z,3.10
2018-12-16T23:20:19.760Z,3.10
2018-12-16T23:23:44.554Z,3.10
2018-12-16T23:27:09.204Z,3.10
2018-12-16T23:30:33.878Z,3.10
2018-12-16T23:33:58.529Z,3.10
2018-12-16T23:37:23.201Z,3.10
2018-12-16T23:40:47.865Z,3.10
2018-12-16T23:44:12.469Z,3.10
2018-12-16T23:47:37.166Z,3.10
2018-12-16T23:51:01.815Z,3.10
2018-12-16T23:54:26.501Z,3.10
2018-12-16T23:57:51.165Z,3.00
